sensor_id;sensor_type;location;lat;lon;timestamp;pressure;altitude;pressure_sealevel;temperature;humidity
7180;BME280;3631;42.152;24.756;2023-02-20T00:02:26;99525.63;;;14.31;51.48
7180;BME280;3631;42.152;24.756;2023-02-20T00:04:55;99529.72;;;14.36;51.58
7180;BME280;3631;42.152;24.756;2023-02-20T00:07:21;99535.84;;;14.35;51.47
7180;BME280;3631;42.152;24.756;2023-02-20T00:09:48;99543.63;;;14.37;51.13
7180;BME280;3631;42.152;24.756;2023-02-20T00:12:17;99538.66;;;14.31;51.04
7180;BME280;3631;42.152;24.756;2023-02-20T00:14:43;99536.63;;;14.37;51.08
7180;BME280;3631;42.152;24.756;2023-02-20T00:17:10;99548.19;;;14.32;51.53
7180;BME280;3631;42.152;24.756;2023-02-20T00:19:37;99549.19;;;14.29;51.31
7180;BME280;3631;42.152;24.756;2023-02-20T00:22:04;99550.16;;;14.27;51.27
7180;BME280;3631;42.152;24.756;2023-02-20T00:24:31;99555.44;;;14.25;51.58
7180;BME280;3631;42.152;24.756;2023-02-20T00:26:58;99557.91;;;14.28;51.34
7180;BME280;3631;42.152;24.756;2023-02-20T00:29:27;99557.06;;;14.28;51.14
7180;BME280;3631;42.152;24.756;2023-02-20T00:31:54;99558.91;;;14.26;51.52
7180;BME280;3631;42.152;24.756;2023-02-20T00:34:23;99552.19;;;14.20;51.59
7180;BME280;3631;42.152;24.756;2023-02-20T00:36:50;99561.72;;;14.21;51.31
7180;BME280;3631;42.152;24.756;2023-02-20T00:39:18;99555.66;;;14.21;51.59
7180;BME280;3631;42.152;24.756;2023-02-20T00:41:45;99554.94;;;14.17;51.85
7180;BME280;3631;42.152;24.756;2023-02-20T00:44:13;99549.88;;;14.12;52.06
7180;BME280;3631;42.152;24.756;2023-02-20T00:46:42;99549.94;;;14.11;52.25
7180;BME280;3631;42.152;24.756;2023-02-20T00:49:08;99552.03;;;14.03;52.38
7180;BME280;3631;42.152;24.756;2023-02-20T00:51:35;99545.53;;;13.93;52.85
7180;BME280;3631;42.152;24.756;2023-02-20T00:54:02;99542.19;;;13.89;52.86
7180;BME280;3631;42.152;24.756;2023-02-20T00:56:29;99549.31;;;13.86;52.98
7180;BME280;3631;42.152;24.756;2023-02-20T00:58:56;99556.06;;;13.90;52.67
7180;BME280;3631;42.152;24.756;2023-02-20T01:01:23;99546.38;;;13.93;52.47
7180;BME280;3631;42.152;24.756;2023-02-20T01:03:51;99535.19;;;13.90;52.84
7180;BME280;3631;42.152;24.756;2023-02-20T01:06:18;99542.50;;;13.81;52.82
7180;BME280;3631;42.152;24.756;2023-02-20T01:08:45;99538.03;;;13.85;52.93
7180;BME280;3631;42.152;24.756;2023-02-20T01:11:12;99541.59;;;13.82;52.72
7180;BME280;3631;42.152;24.756;2023-02-20T01:13:39;99525.50;;;13.73;52.80
7180;BME280;3631;42.152;24.756;2023-02-20T01:16:06;99546.28;;;13.74;52.87
7180;BME280;3631;42.152;24.756;2023-02-20T01:18:33;99547.38;;;13.69;53.07
7180;BME280;3631;42.152;24.756;2023-02-20T01:21:01;99547.66;;;13.63;53.14
7180;BME280;3631;42.152;24.756;2023-02-20T01:23:28;99545.94;;;13.62;53.55
7180;BME280;3631;42.152;24.756;2023-02-20T01:25:55;99560.00;;;13.58;53.67
7180;BME280;3631;42.152;24.756;2023-02-20T01:28:22;99553.34;;;13.51;53.79
7180;BME280;3631;42.152;24.756;2023-02-20T01:30:49;99548.72;;;13.57;53.64
7180;BME280;3631;42.152;24.756;2023-02-20T01:33:16;99546.56;;;13.47;54.17
7180;BME280;3631;42.152;24.756;2023-02-20T01:35:43;99551.88;;;13.43;54.33
7180;BME280;3631;42.152;24.756;2023-02-20T01:38:11;99554.38;;;13.47;54.14
7180;BME280;3631;42.152;24.756;2023-02-20T01:40:38;99559.84;;;13.40;54.17
7180;BME280;3631;42.152;24.756;2023-02-20T01:43:05;99566.81;;;13.40;54.21
7180;BME280;3631;42.152;24.756;2023-02-20T01:45:35;99563.16;;;13.44;54.27
7180;BME280;3631;42.152;24.756;2023-02-20T01:48:03;99552.94;;;13.39;54.22
7180;BME280;3631;42.152;24.756;2023-02-20T01:50:33;99561.72;;;13.37;54.31
7180;BME280;3631;42.152;24.756;2023-02-20T01:53:03;99568.03;;;13.31;54.61
7180;BME280;3631;42.152;24.756;2023-02-20T01:55:38;99569.91;;;13.28;54.86
7180;BME280;3631;42.152;24.756;2023-02-20T01:58:09;99563.88;;;13.26;55.03
7180;BME280;3631;42.152;24.756;2023-02-20T02:00:37;99572.03;;;13.18;55.33
7180;BME280;3631;42.152;24.756;2023-02-20T02:03:05;99566.06;;;13.15;55.26
7180;BME280;3631;42.152;24.756;2023-02-20T02:05:33;99567.94;;;13.09;55.57
7180;BME280;3631;42.152;24.756;2023-02-20T02:08:02;99575.84;;;13.08;55.67
7180;BME280;3631;42.152;24.756;2023-02-20T02:10:32;99584.69;;;13.04;55.78
7180;BME280;3631;42.152;24.756;2023-02-20T02:13:03;99593.50;;;13.00;55.77
7180;BME280;3631;42.152;24.756;2023-02-20T02:15:30;99598.13;;;12.93;55.96
7180;BME280;3631;42.152;24.756;2023-02-20T02:18:05;99592.16;;;12.90;56.37
7180;BME280;3631;42.152;24.756;2023-02-20T02:21:05;99606.13;;;12.87;56.50
7180;BME280;3631;42.152;24.756;2023-02-20T02:24:01;99606.03;;;12.90;56.51
7180;BME280;3631;42.152;24.756;2023-02-20T02:33:05;99608.88;;;12.84;56.99
7180;BME280;3631;42.152;24.756;2023-02-20T02:35:58;99616.09;;;12.76;57.38
7180;BME280;3631;42.152;24.756;2023-02-20T02:38:37;99620.44;;;12.76;57.57
7180;BME280;3631;42.152;24.756;2023-02-20T02:41:16;99626.91;;;12.65;57.82
7180;BME280;3631;42.152;24.756;2023-02-20T02:43:52;99615.72;;;12.63;58.21
7180;BME280;3631;42.152;24.756;2023-02-20T02:46:25;99622.38;;;12.70;58.18
7180;BME280;3631;42.152;24.756;2023-02-20T02:48:57;99625.03;;;12.69;58.13
7180;BME280;3631;42.152;24.756;2023-02-20T02:51:33;99620.75;;;12.68;58.41
7180;BME280;3631;42.152;24.756;2023-02-20T02:54:06;99631.25;;;12.65;58.54
7180;BME280;3631;42.152;24.756;2023-02-20T02:56:35;99640.06;;;12.62;58.61
7180;BME280;3631;42.152;24.756;2023-02-20T02:59:04;99653.91;;;12.63;58.85
7180;BME280;3631;42.152;24.756;2023-02-20T03:01:32;99648.91;;;12.57;59.32
7180;BME280;3631;42.152;24.756;2023-02-20T03:06:33;99647.31;;;12.53;59.52
7180;BME280;3631;42.152;24.756;2023-02-20T03:09:05;99652.16;;;12.63;59.65
7180;BME280;3631;42.152;24.756;2023-02-20T03:11:35;99663.00;;;12.51;60.04
7180;BME280;3631;42.152;24.756;2023-02-20T03:14:05;99661.41;;;12.47;60.23
7180;BME280;3631;42.152;24.756;2023-02-20T03:16:56;99675.34;;;12.45;60.66
7180;BME280;3631;42.152;24.756;2023-02-20T03:19:29;99661.06;;;12.31;61.14
7180;BME280;3631;42.152;24.756;2023-02-20T03:22:01;99665.16;;;12.39;60.99
7180;BME280;3631;42.152;24.756;2023-02-20T03:24:32;99677.06;;;12.46;61.21
7180;BME280;3631;42.152;24.756;2023-02-20T03:27:21;99674.56;;;12.43;61.38
7180;BME280;3631;42.152;24.756;2023-02-20T03:29:51;99673.69;;;12.42;61.52
7180;BME280;3631;42.152;24.756;2023-02-20T03:32:20;99666.69;;;12.44;61.36
7180;BME280;3631;42.152;24.756;2023-02-20T03:35:08;99667.44;;;12.48;61.46
7180;BME280;3631;42.152;24.756;2023-02-20T03:37:54;99683.03;;;12.49;61.39
7180;BME280;3631;42.152;24.756;2023-02-20T03:40:39;99678.63;;;12.51;61.28
7180;BME280;3631;42.152;24.756;2023-02-20T03:43:25;99691.94;;;12.42;61.82
7180;BME280;3631;42.152;24.756;2023-02-20T03:45:58;99699.09;;;12.35;62.05
7180;BME280;3631;42.152;24.756;2023-02-20T03:48:38;99700.06;;;12.33;62.41
7180;BME280;3631;42.152;24.756;2023-02-20T03:51:08;99692.25;;;12.33;62.46
7180;BME280;3631;42.152;24.756;2023-02-20T03:53:38;99690.78;;;12.24;62.68
7180;BME280;3631;42.152;24.756;2023-02-20T03:56:08;99711.31;;;12.33;62.51
7180;BME280;3631;42.152;24.756;2023-02-20T03:58:39;99701.97;;;12.28;62.72
7180;BME280;3631;42.152;24.756;2023-02-20T04:01:09;99717.41;;;12.32;62.84
7180;BME280;3631;42.152;24.756;2023-02-20T04:03:39;99720.88;;;12.33;62.84
7180;BME280;3631;42.152;24.756;2023-02-20T04:06:08;99724.31;;;12.33;62.71
7180;BME280;3631;42.152;24.756;2023-02-20T04:08:41;99734.66;;;12.36;62.99
7180;BME280;3631;42.152;24.756;2023-02-20T04:11:14;99733.84;;;12.34;63.01
7180;BME280;3631;42.152;24.756;2023-02-20T04:13:43;99701.31;;;12.21;63.21
7180;BME280;3631;42.152;24.756;2023-02-20T04:16:13;99719.84;;;12.39;63.49
7180;BME280;3631;42.152;24.756;2023-02-20T04:18:40;99719.06;;;12.35;63.28
7180;BME280;3631;42.152;24.756;2023-02-20T04:21:12;99721.03;;;12.28;63.65
7180;BME280;3631;42.152;24.756;2023-02-20T04:23:46;99720.22;;;12.26;63.90
7180;BME280;3631;42.152;24.756;2023-02-20T04:26:18;99720.19;;;12.28;63.86
7180;BME280;3631;42.152;24.756;2023-02-20T04:28:47;99715.22;;;12.20;63.87
7180;BME280;3631;42.152;24.756;2023-02-20T04:31:15;99711.91;;;12.15;63.84
7180;BME280;3631;42.152;24.756;2023-02-20T04:33:42;99715.41;;;12.14;63.53
7180;BME280;3631;42.152;24.756;2023-02-20T04:36:10;99717.03;;;12.18;63.17
7180;BME280;3631;42.152;24.756;2023-02-20T04:38:37;99710.13;;;12.17;62.66
7180;BME280;3631;42.152;24.756;2023-02-20T04:41:05;99709.28;;;12.17;62.55
7180;BME280;3631;42.152;24.756;2023-02-20T04:43:32;99715.41;;;12.14;62.40
7180;BME280;3631;42.152;24.756;2023-02-20T04:45:59;99712.13;;;12.08;62.35
7180;BME280;3631;42.152;24.756;2023-02-20T04:48:25;99708.72;;;12.07;62.28
7180;BME280;3631;42.152;24.756;2023-02-20T04:50:52;99716.53;;;12.07;62.33
7180;BME280;3631;42.152;24.756;2023-02-20T04:53:19;99718.31;;;12.05;62.45
7180;BME280;3631;42.152;24.756;2023-02-20T04:55:46;99711.50;;;12.01;62.50
7180;BME280;3631;42.152;24.756;2023-02-20T04:58:15;99723.69;;;11.99;61.64
7180;BME280;3631;42.152;24.756;2023-02-20T05:00:42;99726.22;;;12.02;60.99
7180;BME280;3631;42.152;24.756;2023-02-20T05:03:09;99736.91;;;11.93;60.64
7180;BME280;3631;42.152;24.756;2023-02-20T05:05:35;99715.28;;;11.91;60.48
7180;BME280;3631;42.152;24.756;2023-02-20T05:08:05;99723.91;;;11.93;60.40
7180;BME280;3631;42.152;24.756;2023-02-20T05:10:34;99726.66;;;11.87;60.13
7180;BME280;3631;42.152;24.756;2023-02-20T05:13:01;99719.94;;;11.81;60.56
7180;BME280;3631;42.152;24.756;2023-02-20T05:15:30;99734.47;;;11.87;60.12
7180;BME280;3631;42.152;24.756;2023-02-20T05:17:57;99732.88;;;11.83;59.71
7180;BME280;3631;42.152;24.756;2023-02-20T05:20:24;99731.78;;;11.90;59.73
7180;BME280;3631;42.152;24.756;2023-02-20T05:23:11;99742.09;;;11.93;60.08
7180;BME280;3631;42.152;24.756;2023-02-20T05:25:37;99746.41;;;11.94;59.54
7180;BME280;3631;42.152;24.756;2023-02-20T05:28:04;99756.06;;;11.90;59.66
7180;BME280;3631;42.152;24.756;2023-02-20T05:30:32;99761.22;;;11.92;59.70
7180;BME280;3631;42.152;24.756;2023-02-20T05:32:59;99769.19;;;11.86;59.97
7180;BME280;3631;42.152;24.756;2023-02-20T05:35:26;99776.06;;;11.88;59.95
7180;BME280;3631;42.152;24.756;2023-02-20T05:37:53;99787.03;;;11.98;59.80
7180;BME280;3631;42.152;24.756;2023-02-20T05:40:20;99787.09;;;12.24;58.97
7180;BME280;3631;42.152;24.756;2023-02-20T05:42:47;99799.72;;;12.89;57.74
7180;BME280;3631;42.152;24.756;2023-02-20T05:45:14;99802.50;;;13.82;53.62
7180;BME280;3631;42.152;24.756;2023-02-20T05:47:42;99819.75;;;14.10;52.35
7180;BME280;3631;42.152;24.756;2023-02-20T05:50:09;99810.09;;;13.89;52.56
7180;BME280;3631;42.152;24.756;2023-02-20T05:52:36;99820.75;;;13.59;53.26
7180;BME280;3631;42.152;24.756;2023-02-20T05:55:03;99815.78;;;13.53;53.41
7180;BME280;3631;42.152;24.756;2023-02-20T05:57:31;99826.75;;;14.31;51.92
7180;BME280;3631;42.152;24.756;2023-02-20T05:59:57;99837.47;;;15.70;48.16
7180;BME280;3631;42.152;24.756;2023-02-20T06:02:24;99839.94;;;17.37;44.47
7180;BME280;3631;42.152;24.756;2023-02-20T06:04:54;99846.50;;;19.05;41.12
7180;BME280;3631;42.152;24.756;2023-02-20T06:07:21;99852.59;;;20.35;38.36
7180;BME280;3631;42.152;24.756;2023-02-20T06:09:47;99859.75;;;20.88;36.68
7180;BME280;3631;42.152;24.756;2023-02-20T06:12:14;99865.78;;;21.29;35.62
7180;BME280;3631;42.152;24.756;2023-02-20T06:14:41;99874.16;;;21.74;34.83
7180;BME280;3631;42.152;24.756;2023-02-20T06:17:08;99884.59;;;22.26;33.99
7180;BME280;3631;42.152;24.756;2023-02-20T06:19:35;99880.53;;;22.70;32.87
7180;BME280;3631;42.152;24.756;2023-02-20T06:22:04;99889.06;;;23.10;32.26
7180;BME280;3631;42.152;24.756;2023-02-20T06:24:31;99899.66;;;23.91;31.30
7180;BME280;3631;42.152;24.756;2023-02-20T06:26:58;99899.03;;;24.54;29.84
7180;BME280;3631;42.152;24.756;2023-02-20T06:29:25;99906.16;;;25.08;29.14
7180;BME280;3631;42.152;24.756;2023-02-20T06:31:53;99915.72;;;25.84;28.13
7180;BME280;3631;42.152;24.756;2023-02-20T06:34:23;99931.00;;;27.02;26.51
7180;BME280;3631;42.152;24.756;2023-02-20T06:36:50;99936.19;;;27.71;25.77
7180;BME280;3631;42.152;24.756;2023-02-20T06:39:18;99933.31;;;28.94;24.54
7180;BME280;3631;42.152;24.756;2023-02-20T06:41:45;99920.06;;;29.37;24.09
7180;BME280;3631;42.152;24.756;2023-02-20T06:44:12;99923.13;;;29.42;23.45
7180;BME280;3631;42.152;24.756;2023-02-20T06:46:39;99926.69;;;28.98;23.89
7180;BME280;3631;42.152;24.756;2023-02-20T06:49:05;99912.47;;;29.15;23.60
7180;BME280;3631;42.152;24.756;2023-02-20T06:51:33;99905.31;;;28.98;23.77
7180;BME280;3631;42.152;24.756;2023-02-20T06:54:01;99885.59;;;29.34;23.37
7180;BME280;3631;42.152;24.756;2023-02-20T06:56:31;99893.00;;;29.40;23.37
7180;BME280;3631;42.152;24.756;2023-02-20T06:58:59;99905.00;;;30.06;22.60
7180;BME280;3631;42.152;24.756;2023-02-20T07:01:29;99894.22;;;30.65;22.21
7180;BME280;3631;42.152;24.756;2023-02-20T07:03:57;99897.22;;;29.94;22.80
7180;BME280;3631;42.152;24.756;2023-02-20T07:06:24;99890.28;;;29.84;22.91
7180;BME280;3631;42.152;24.756;2023-02-20T07:08:51;99894.47;;;28.99;23.45
7180;BME280;3631;42.152;24.756;2023-02-20T07:11:21;99870.81;;;27.29;25.10
7180;BME280;3631;42.152;24.756;2023-02-20T07:13:50;99872.53;;;24.21;28.09
7180;BME280;3631;42.152;24.756;2023-02-20T07:16:17;99879.34;;;21.76;31.07
7180;BME280;3631;42.152;24.756;2023-02-20T07:18:44;99863.31;;;20.60;32.74
7180;BME280;3631;42.152;24.756;2023-02-20T07:21:10;99873.44;;;19.24;34.73
7180;BME280;3631;42.152;24.756;2023-02-20T07:23:37;99867.59;;;18.42;36.17
7180;BME280;3631;42.152;24.756;2023-02-20T07:26:04;99865.81;;;17.78;37.32
7180;BME280;3631;42.152;24.756;2023-02-20T07:28:33;99869.31;;;17.44;37.83
7180;BME280;3631;42.152;24.756;2023-02-20T07:31:01;99874.50;;;17.11;38.51
7180;BME280;3631;42.152;24.756;2023-02-20T07:33:28;99868.75;;;16.86;38.97
7180;BME280;3631;42.152;24.756;2023-02-20T07:35:55;99886.31;;;16.66;39.10
7180;BME280;3631;42.152;24.756;2023-02-20T07:38:22;99884.50;;;16.48;39.68
7180;BME280;3631;42.152;24.756;2023-02-20T07:40:49;99882.25;;;16.41;39.26
7180;BME280;3631;42.152;24.756;2023-02-20T07:43:16;99879.56;;;16.42;39.34
7180;BME280;3631;42.152;24.756;2023-02-20T07:45:43;99880.56;;;16.21;39.63
7180;BME280;3631;42.152;24.756;2023-02-20T07:48:11;99892.03;;;16.00;39.88
7180;BME280;3631;42.152;24.756;2023-02-20T07:50:38;99875.53;;;15.97;39.78
7180;BME280;3631;42.152;24.756;2023-02-20T07:53:05;99879.97;;;15.95;39.45
7180;BME280;3631;42.152;24.756;2023-02-20T07:55:32;99878.69;;;15.85;39.03
7180;BME280;3631;42.152;24.756;2023-02-20T07:57:59;99879.34;;;15.70;39.18
7180;BME280;3631;42.152;24.756;2023-02-20T08:00:26;99889.69;;;15.73;39.03
7180;BME280;3631;42.152;24.756;2023-02-20T08:02:53;99871.78;;;15.64;39.23
7180;BME280;3631;42.152;24.756;2023-02-20T08:05:21;99857.38;;;15.54;39.13
7180;BME280;3631;42.152;24.756;2023-02-20T08:07:49;99873.75;;;15.59;39.04
7180;BME280;3631;42.152;24.756;2023-02-20T08:10:18;99867.06;;;15.72;39.06
7180;BME280;3631;42.152;24.756;2023-02-20T08:12:47;99865.34;;;15.71;39.00
7180;BME280;3631;42.152;24.756;2023-02-20T08:15:14;99869.56;;;15.75;38.96
7180;BME280;3631;42.152;24.756;2023-02-20T08:17:40;99870.03;;;15.65;38.46
7180;BME280;3631;42.152;24.756;2023-02-20T08:20:08;99867.91;;;15.73;38.37
7180;BME280;3631;42.152;24.756;2023-02-20T08:22:37;99861.41;;;15.81;38.23
7180;BME280;3631;42.152;24.756;2023-02-20T08:25:05;99872.03;;;15.78;37.98
7180;BME280;3631;42.152;24.756;2023-02-20T08:27:32;99856.78;;;15.88;37.09
7180;BME280;3631;42.152;24.756;2023-02-20T08:30:03;99856.84;;;15.86;36.60
7180;BME280;3631;42.152;24.756;2023-02-20T08:32:30;99854.47;;;15.80;36.65
7180;BME280;3631;42.152;24.756;2023-02-20T08:34:57;99858.09;;;15.78;36.80
7180;BME280;3631;42.152;24.756;2023-02-20T08:37:24;99857.50;;;15.71;37.02
7180;BME280;3631;42.152;24.756;2023-02-20T08:39:52;99866.06;;;15.56;36.65
7180;BME280;3631;42.152;24.756;2023-02-20T08:42:19;99851.19;;;15.56;36.96
7180;BME280;3631;42.152;24.756;2023-02-20T08:44:46;99841.38;;;15.61;36.38
7180;BME280;3631;42.152;24.756;2023-02-20T08:47:13;99832.78;;;15.58;36.16
7180;BME280;3631;42.152;24.756;2023-02-20T08:49:40;99811.88;;;15.58;36.39
7180;BME280;3631;42.152;24.756;2023-02-20T08:52:07;99827.66;;;15.56;36.33
7180;BME280;3631;42.152;24.756;2023-02-20T08:54:34;99844.91;;;15.60;35.75
7180;BME280;3631;42.152;24.756;2023-02-20T08:57:02;99826.16;;;15.70;35.13
7180;BME280;3631;42.152;24.756;2023-02-20T08:59:30;99843.00;;;15.64;35.02
7180;BME280;3631;42.152;24.756;2023-02-20T09:01:58;99840.75;;;15.75;34.94
7180;BME280;3631;42.152;24.756;2023-02-20T09:04:24;99844.72;;;15.84;34.74
7180;BME280;3631;42.152;24.756;2023-02-20T09:06:51;99853.44;;;15.84;34.74
7180;BME280;3631;42.152;24.756;2023-02-20T09:09:18;99864.50;;;15.91;34.60
7180;BME280;3631;42.152;24.756;2023-02-20T09:11:45;99884.78;;;15.86;34.31
7180;BME280;3631;42.152;24.756;2023-02-20T09:14:14;99878.41;;;15.91;33.51
7180;BME280;3631;42.152;24.756;2023-02-20T09:16:40;99890.88;;;15.86;33.66
7180;BME280;3631;42.152;24.756;2023-02-20T09:19:07;99866.94;;;15.94;31.86
7180;BME280;3631;42.152;24.756;2023-02-20T09:21:34;99900.66;;;16.02;31.84
7180;BME280;3631;42.152;24.756;2023-02-20T09:24:02;99903.84;;;16.08;30.87
7180;BME280;3631;42.152;24.756;2023-02-20T09:26:30;99897.19;;;16.01;30.80
7180;BME280;3631;42.152;24.756;2023-02-20T09:28:57;99912.00;;;16.02;30.99
7180;BME280;3631;42.152;24.756;2023-02-20T09:31:25;99898.72;;;16.05;30.67
7180;BME280;3631;42.152;24.756;2023-02-20T09:33:52;99903.06;;;16.06;30.34
7180;BME280;3631;42.152;24.756;2023-02-20T09:36:19;99897.03;;;16.04;30.86
7180;BME280;3631;42.152;24.756;2023-02-20T09:38:46;99878.06;;;15.99;31.57
7180;BME280;3631;42.152;24.756;2023-02-20T09:41:22;99889.97;;;16.06;31.97
7180;BME280;3631;42.152;24.756;2023-02-20T09:43:56;99884.53;;;16.11;31.52
7180;BME280;3631;42.152;24.756;2023-02-20T09:46:27;99883.09;;;16.04;30.28
7180;BME280;3631;42.152;24.756;2023-02-20T09:49:02;99876.88;;;16.06;29.52
7180;BME280;3631;42.152;24.756;2023-02-20T09:51:32;99885.72;;;16.04;28.66
7180;BME280;3631;42.152;24.756;2023-02-20T09:54:03;99880.28;;;16.08;28.56
7180;BME280;3631;42.152;24.756;2023-02-20T09:56:34;99871.63;;;16.06;28.58
7180;BME280;3631;42.152;24.756;2023-02-20T09:59:07;99886.22;;;16.12;28.35
7180;BME280;3631;42.152;24.756;2023-02-20T10:01:40;99868.03;;;16.09;26.90
7180;BME280;3631;42.152;24.756;2023-02-20T10:04:11;99868.38;;;16.20;27.12
7180;BME280;3631;42.152;24.756;2023-02-20T10:06:39;99850.97;;;16.19;26.94
7180;BME280;3631;42.152;24.756;2023-02-20T10:09:10;99881.00;;;16.30;26.40
7180;BME280;3631;42.152;24.756;2023-02-20T10:11:52;99871.06;;;16.37;26.01
7180;BME280;3631;42.152;24.756;2023-02-20T10:14:36;99863.97;;;16.39;26.06
7180;BME280;3631;42.152;24.756;2023-02-20T10:17:16;99875.09;;;16.44;25.59
7180;BME280;3631;42.152;24.756;2023-02-20T10:19:49;99859.25;;;16.47;26.31
7180;BME280;3631;42.152;24.756;2023-02-20T10:22:21;99865.69;;;16.40;25.92
7180;BME280;3631;42.152;24.756;2023-02-20T10:24:59;99863.06;;;16.40;25.60
7180;BME280;3631;42.152;24.756;2023-02-20T10:27:36;99858.53;;;16.44;25.76
7180;BME280;3631;42.152;24.756;2023-02-20T10:30:10;99865.47;;;16.45;25.93
7180;BME280;3631;42.152;24.756;2023-02-20T10:32:43;99872.06;;;16.53;25.80
7180;BME280;3631;42.152;24.756;2023-02-20T10:35:15;99871.34;;;16.50;25.35
7180;BME280;3631;42.152;24.756;2023-02-20T10:37:48;99863.97;;;16.58;25.67
7180;BME280;3631;42.152;24.756;2023-02-20T10:40:20;99850.66;;;16.62;25.26
7180;BME280;3631;42.152;24.756;2023-02-20T10:42:54;99849.00;;;16.60;25.21
7180;BME280;3631;42.152;24.756;2023-02-20T10:45:34;99866.41;;;16.62;24.92
7180;BME280;3631;42.152;24.756;2023-02-20T10:48:06;99860.31;;;16.62;25.03
7180;BME280;3631;42.152;24.756;2023-02-20T10:50:38;99857.25;;;16.52;25.02
7180;BME280;3631;42.152;24.756;2023-02-20T10:53:15;99858.88;;;16.55;25.15
7180;BME280;3631;42.152;24.756;2023-02-20T10:55:48;99864.13;;;16.55;25.40
7180;BME280;3631;42.152;24.756;2023-02-20T10:58:21;99845.72;;;16.56;24.98
7180;BME280;3631;42.152;24.756;2023-02-20T11:00:53;99867.28;;;16.61;24.91
7180;BME280;3631;42.152;24.756;2023-02-20T11:03:29;99851.56;;;16.61;25.19
7180;BME280;3631;42.152;24.756;2023-02-20T11:06:00;99851.56;;;16.61;25.71
7180;BME280;3631;42.152;24.756;2023-02-20T11:08:28;99859.41;;;16.61;25.70
7180;BME280;3631;42.152;24.756;2023-02-20T11:10:58;99854.84;;;16.66;25.45
7180;BME280;3631;42.152;24.756;2023-02-20T11:13:25;99856.63;;;16.66;25.76
7180;BME280;3631;42.152;24.756;2023-02-20T11:15:54;99840.91;;;16.66;25.11
7180;BME280;3631;42.152;24.756;2023-02-20T11:18:26;99863.25;;;16.73;25.42
7180;BME280;3631;42.152;24.756;2023-02-20T11:20:56;99848.44;;;16.72;25.06
7180;BME280;3631;42.152;24.756;2023-02-20T11:23:36;99850.06;;;16.75;25.30
7180;BME280;3631;42.152;24.756;2023-02-20T11:26:25;99840.50;;;16.74;24.94
7180;BME280;3631;42.152;24.756;2023-02-20T11:28:56;99844.13;;;16.71;24.99
7180;BME280;3631;42.152;24.756;2023-02-20T11:31:24;99843.28;;;16.70;25.16
7180;BME280;3631;42.152;24.756;2023-02-20T11:33:54;99848.84;;;16.82;24.83
7180;BME280;3631;42.152;24.756;2023-02-20T11:36:22;99842.59;;;16.84;24.74
7180;BME280;3631;42.152;24.756;2023-02-20T11:38:56;99836.59;;;16.82;24.35
7180;BME280;3631;42.152;24.756;2023-02-20T11:41:30;99847.56;;;16.90;24.33
7180;BME280;3631;42.152;24.756;2023-02-20T11:44:21;99852.88;;;16.89;24.26
7180;BME280;3631;42.152;24.756;2023-02-20T11:47:22;99850.13;;;16.92;24.25
7180;BME280;3631;42.152;24.756;2023-02-20T11:50:17;99847.41;;;16.93;24.46
7180;BME280;3631;42.152;24.756;2023-02-20T11:52:58;99853.28;;;16.98;24.96
7180;BME280;3631;42.152;24.756;2023-02-20T11:55:26;99855.69;;;17.03;25.14
7180;BME280;3631;42.152;24.756;2023-02-20T11:57:54;99839.31;;;16.98;25.28
7180;BME280;3631;42.152;24.756;2023-02-20T12:00:22;99850.66;;;17.16;25.05
7180;BME280;3631;42.152;24.756;2023-02-20T12:02:52;99847.28;;;17.14;24.86
7180;BME280;3631;42.152;24.756;2023-02-20T12:05:35;99855.50;;;17.06;25.28
7180;BME280;3631;42.152;24.756;2023-02-20T12:08:21;99850.97;;;17.10;25.37
7180;BME280;3631;42.152;24.756;2023-02-20T12:10:52;99859.47;;;17.15;24.82
7180;BME280;3631;42.152;24.756;2023-02-20T12:13:24;99858.44;;;17.17;24.85
7180;BME280;3631;42.152;24.756;2023-02-20T12:15:54;99848.44;;;17.25;24.83
7180;BME280;3631;42.152;24.756;2023-02-20T12:18:41;99841.19;;;17.13;25.04
7180;BME280;3631;42.152;24.756;2023-02-20T12:21:21;99845.88;;;17.06;24.98
7180;BME280;3631;42.152;24.756;2023-02-20T12:24:08;99846.56;;;16.93;25.22
7180;BME280;3631;42.152;24.756;2023-02-20T12:26:45;99849.41;;;17.05;25.87
7180;BME280;3631;42.152;24.756;2023-02-20T12:29:23;99833.59;;;17.07;25.76
7180;BME280;3631;42.152;24.756;2023-02-20T12:32:10;99843.94;;;17.10;25.52
7180;BME280;3631;42.152;24.756;2023-02-20T12:34:49;99843.16;;;17.08;25.63
7180;BME280;3631;42.152;24.756;2023-02-20T12:37:29;99825.91;;;17.04;25.25
7180;BME280;3631;42.152;24.756;2023-02-20T12:40:07;99835.91;;;16.96;25.64
7180;BME280;3631;42.152;24.756;2023-02-20T12:42:42;99836.41;;;17.04;25.21
7180;BME280;3631;42.152;24.756;2023-02-20T12:45:18;99838.84;;;17.07;25.29
7180;BME280;3631;42.152;24.756;2023-02-20T12:47:57;99839.63;;;17.09;25.13
7180;BME280;3631;42.152;24.756;2023-02-20T12:50:39;99829.13;;;17.09;25.29
7180;BME280;3631;42.152;24.756;2023-02-20T12:53:27;99828.22;;;17.10;25.26
7180;BME280;3631;42.152;24.756;2023-02-20T12:56:04;99841.19;;;17.13;25.51
7180;BME280;3631;42.152;24.756;2023-02-20T12:58:45;99821.03;;;17.14;25.69
7180;BME280;3631;42.152;24.756;2023-02-20T13:01:14;99824.03;;;17.06;25.94
7180;BME280;3631;42.152;24.756;2023-02-20T13:03:48;99820.66;;;17.04;25.45
7180;BME280;3631;42.152;24.756;2023-02-20T13:06:24;99824.97;;;17.05;25.86
7180;BME280;3631;42.152;24.756;2023-02-20T13:09:02;99830.19;;;17.05;25.53
7180;BME280;3631;42.152;24.756;2023-02-20T13:11:34;99818.41;;;16.96;25.44
7180;BME280;3631;42.152;24.756;2023-02-20T13:14:13;99816.03;;;16.92;25.49
7180;BME280;3631;42.152;24.756;2023-02-20T13:16:46;99822.97;;;16.93;26.10
7180;BME280;3631;42.152;24.756;2023-02-20T13:19:20;99819.25;;;16.97;26.16
7180;BME280;3631;42.152;24.756;2023-02-20T13:21:48;99835.56;;;17.03;25.21
7180;BME280;3631;42.152;24.756;2023-02-20T13:24:34;99822.97;;;17.10;25.93
7180;BME280;3631;42.152;24.756;2023-02-20T13:27:02;99830.69;;;17.13;25.77
7180;BME280;3631;42.152;24.756;2023-02-20T13:29:34;99835.75;;;17.16;25.57
7180;BME280;3631;42.152;24.756;2023-02-20T13:32:03;99824.81;;;17.08;25.77
7180;BME280;3631;42.152;24.756;2023-02-20T13:34:47;99845.00;;;17.06;25.93
7180;BME280;3631;42.152;24.756;2023-02-20T13:37:52;99842.25;;;17.09;25.33
7180;BME280;3631;42.152;24.756;2023-02-20T13:40:41;99833.22;;;16.97;25.17